sensor_id;sensor_type;location;lat;lon;timestamp;P1;durP1;ratioP1;P2;durP2;ratioP2
70866;SDS011;58487;53.474;49.470;2023-03-01T00:01:12;6.72;;;2.55;;
70866;SDS011;58487;53.474;49.470;2023-03-01T00:03:41;9.60;;;3.05;;
70866;SDS011;58487;53.474;49.470;2023-03-01T00:06:08;7.93;;;2.90;;
70866;SDS011;58487;53.474;49.470;2023-03-01T00:08:35;7.90;;;3.47;;
70866;SDS011;58487;53.474;49.470;2023-03-01T00:11:04;6.90;;;2.73;;
70866;SDS011;58487;53.474;49.470;2023-03-01T00:13:34;7.07;;;2.80;;
70866;SDS011;58487;53.474;49.470;2023-03-01T00:16:02;7.72;;;3.08;;
70866;SDS011;58487;53.474;49.470;2023-03-01T00:18:33;6.25;;;2.25;;
70866;SDS011;58487;53.474;49.470;2023-03-01T00:20:59;5.95;;;2.53;;
70866;SDS011;58487;53.474;49.470;2023-03-01T00:23:26;5.60;;;2.63;;
70866;SDS011;58487;53.474;49.470;2023-03-01T00:25:52;7.82;;;3.13;;
70866;SDS011;58487;53.474;49.470;2023-03-01T00:28:19;5.22;;;2.55;;
70866;SDS011;58487;53.474;49.470;2023-03-01T00:30:46;9.25;;;3.13;;
70866;SDS011;58487;53.474;49.470;2023-03-01T00:33:13;6.15;;;2.53;;
70866;SDS011;58487;53.474;49.470;2023-03-01T00:35:40;7.07;;;2.97;;
70866;SDS011;58487;53.474;49.470;2023-03-01T00:38:06;9.25;;;3.60;;
70866;SDS011;58487;53.474;49.470;2023-03-01T00:40:33;6.03;;;2.78;;
70866;SDS011;58487;53.474;49.470;2023-03-01T00:43:00;10.18;;;3.85;;
70866;SDS011;58487;53.474;49.470;2023-03-01T00:45:27;6.82;;;2.53;;
70866;SDS011;58487;53.474;49.470;2023-03-01T00:47:54;6.70;;;2.73;;
70866;SDS011;58487;53.474;49.470;2023-03-01T00:50:20;6.80;;;3.63;;
70866;SDS011;58487;53.474;49.470;2023-03-01T00:52:46;8.10;;;4.00;;
70866;SDS011;58487;53.474;49.470;2023-03-01T00:55:12;11.65;;;4.00;;
70866;SDS011;58487;53.474;49.470;2023-03-01T00:57:39;9.13;;;4.10;;
70866;SDS011;58487;53.474;49.470;2023-03-01T01:00:05;7.67;;;2.57;;
70866;SDS011;58487;53.474;49.470;2023-03-01T01:02:33;8.95;;;3.58;;
70866;SDS011;58487;53.474;49.470;2023-03-01T01:04:59;7.30;;;3.10;;
70866;SDS011;58487;53.474;49.470;2023-03-01T01:07:26;6.60;;;2.90;;
70866;SDS011;58487;53.474;49.470;2023-03-01T01:09:52;8.10;;;3.25;;
70866;SDS011;58487;53.474;49.470;2023-03-01T01:12:19;9.50;;;3.33;;
70866;SDS011;58487;53.474;49.470;2023-03-01T01:14:45;6.43;;;2.15;;
70866;SDS011;58487;53.474;49.470;2023-03-01T01:17:11;7.60;;;2.75;;
70866;SDS011;58487;53.474;49.470;2023-03-01T01:19:38;7.25;;;3.03;;
70866;SDS011;58487;53.474;49.470;2023-03-01T01:22:04;7.50;;;2.80;;
70866;SDS011;58487;53.474;49.470;2023-03-01T01:24:30;4.63;;;2.00;;
70866;SDS011;58487;53.474;49.470;2023-03-01T01:26:56;8.00;;;3.53;;
70866;SDS011;58487;53.474;49.470;2023-03-01T01:29:22;7.18;;;3.17;;
70866;SDS011;58487;53.474;49.470;2023-03-01T01:31:48;6.35;;;2.63;;
70866;SDS011;58487;53.474;49.470;2023-03-01T01:34:16;9.48;;;3.20;;
70866;SDS011;58487;53.474;49.470;2023-03-01T01:36:43;5.97;;;2.63;;
70866;SDS011;58487;53.474;49.470;2023-03-01T01:39:12;10.32;;;3.40;;
70866;SDS011;58487;53.474;49.470;2023-03-01T01:41:39;8.57;;;3.53;;
70866;SDS011;58487;53.474;49.470;2023-03-01T01:46:57;8.07;;;3.50;;
70866;SDS011;58487;53.474;49.470;2023-03-01T01:52:03;6.63;;;2.58;;
70866;SDS011;58487;53.474;49.470;2023-03-01T01:54:34;7.43;;;2.72;;
70866;SDS011;58487;53.474;49.470;2023-03-01T01:57:10;5.90;;;2.50;;
70866;SDS011;58487;53.474;49.470;2023-03-01T01:59:40;6.90;;;3.10;;
70866;SDS011;58487;53.474;49.470;2023-03-01T02:02:10;8.20;;;2.87;;
70866;SDS011;58487;53.474;49.470;2023-03-01T02:04:37;8.75;;;3.72;;
70866;SDS011;58487;53.474;49.470;2023-03-01T02:07:06;7.85;;;2.90;;
70866;SDS011;58487;53.474;49.470;2023-03-01T02:09:39;8.20;;;3.03;;
70866;SDS011;58487;53.474;49.470;2023-03-01T02:12:11;7.00;;;2.97;;
70866;SDS011;58487;53.474;49.470;2023-03-01T02:14:39;9.17;;;3.33;;
70866;SDS011;58487;53.474;49.470;2023-03-01T02:17:05;10.02;;;3.58;;
70866;SDS011;58487;53.474;49.470;2023-03-01T02:22:24;10.68;;;4.50;;
70866;SDS011;58487;53.474;49.470;2023-03-01T02:27:58;8.10;;;3.17;;
70866;SDS011;58487;53.474;49.470;2023-03-01T02:30:42;6.57;;;2.90;;
70866;SDS011;58487;53.474;49.470;2023-03-01T02:33:28;6.65;;;3.05;;
70866;SDS011;58487;53.474;49.470;2023-03-01T02:36:03;10.43;;;4.38;;
70866;SDS011;58487;53.474;49.470;2023-03-01T02:38:32;9.68;;;3.30;;
70866;SDS011;58487;53.474;49.470;2023-03-01T02:40:58;10.37;;;2.43;;
70866;SDS011;58487;53.474;49.470;2023-03-01T02:43:29;11.38;;;3.63;;
70866;SDS011;58487;53.474;49.470;2023-03-01T02:45:57;11.05;;;4.40;;
70866;SDS011;58487;53.474;49.470;2023-03-01T02:48:25;10.93;;;4.45;;
70866;SDS011;58487;53.474;49.470;2023-03-01T02:50:53;6.88;;;2.70;;
70866;SDS011;58487;53.474;49.470;2023-03-01T02:56:18;12.60;;;5.00;;
70866;SDS011;58487;53.474;49.470;2023-03-01T02:58:44;10.35;;;4.40;;
70866;SDS011;58487;53.474;49.470;2023-03-01T03:01:13;14.25;;;5.25;;
70866;SDS011;58487;53.474;49.470;2023-03-01T03:03:41;11.98;;;4.85;;
70866;SDS011;58487;53.474;49.470;2023-03-01T03:06:08;12.50;;;4.67;;
70866;SDS011;58487;53.474;49.470;2023-03-01T03:08:34;11.98;;;4.88;;
70866;SDS011;58487;53.474;49.470;2023-03-01T03:11:01;6.38;;;2.45;;
70866;SDS011;58487;53.474;49.470;2023-03-01T03:13:27;9.00;;;3.65;;
70866;SDS011;58487;53.474;49.470;2023-03-01T03:15:54;6.57;;;2.50;;
70866;SDS011;58487;53.474;49.470;2023-03-01T03:18:21;10.93;;;4.07;;
70866;SDS011;58487;53.474;49.470;2023-03-01T03:20:51;9.93;;;4.30;;
70866;SDS011;58487;53.474;49.470;2023-03-01T03:23:19;9.98;;;3.75;;
70866;SDS011;58487;53.474;49.470;2023-03-01T03:25:48;6.82;;;2.95;;
70866;SDS011;58487;53.474;49.470;2023-03-01T03:28:15;9.40;;;3.63;;
70866;SDS011;58487;53.474;49.470;2023-03-01T03:30:42;12.50;;;4.47;;
70866;SDS011;58487;53.474;49.470;2023-03-01T03:33:09;11.63;;;3.88;;
70866;SDS011;58487;53.474;49.470;2023-03-01T03:35:41;10.93;;;4.60;;
70866;SDS011;58487;53.474;49.470;2023-03-01T03:38:13;16.33;;;4.30;;
70866;SDS011;58487;53.474;49.470;2023-03-01T03:43:16;9.37;;;3.33;;
70866;SDS011;58487;53.474;49.470;2023-03-01T03:45:48;7.35;;;2.72;;
70866;SDS011;58487;53.474;49.470;2023-03-01T03:48:16;6.60;;;2.53;;
70866;SDS011;58487;53.474;49.470;2023-03-01T03:50:47;9.65;;;3.90;;
70866;SDS011;58487;53.474;49.470;2023-03-01T03:53:15;5.82;;;2.08;;
70866;SDS011;58487;53.474;49.470;2023-03-01T03:55:42;11.40;;;4.17;;
70866;SDS011;58487;53.474;49.470;2023-03-01T03:58:10;10.38;;;4.25;;
70866;SDS011;58487;53.474;49.470;2023-03-01T04:00:37;12.65;;;5.10;;
70866;SDS011;58487;53.474;49.470;2023-03-01T04:03:06;10.10;;;3.60;;
70866;SDS011;58487;53.474;49.470;2023-03-01T04:05:32;11.38;;;4.57;;
70866;SDS011;58487;53.474;49.470;2023-03-01T04:07:59;10.27;;;4.33;;
70866;SDS011;58487;53.474;49.470;2023-03-01T04:10:29;9.55;;;4.13;;
70866;SDS011;58487;53.474;49.470;2023-03-01T04:12:58;8.75;;;3.53;;
70866;SDS011;58487;53.474;49.470;2023-03-01T04:15:24;10.23;;;4.30;;
70866;SDS011;58487;53.474;49.470;2023-03-01T04:17:54;11.25;;;4.57;;
70866;SDS011;58487;53.474;49.470;2023-03-01T04:20:22;9.57;;;3.60;;
70866;SDS011;58487;53.474;49.470;2023-03-01T04:22:51;5.45;;;2.13;;
70866;SDS011;58487;53.474;49.470;2023-03-01T04:25:23;10.57;;;4.13;;
70866;SDS011;58487;53.474;49.470;2023-03-01T04:27:49;9.13;;;3.70;;
70866;SDS011;58487;53.474;49.470;2023-03-01T04:30:16;9.07;;;2.78;;
70866;SDS011;58487;53.474;49.470;2023-03-01T04:32:42;10.53;;;3.73;;
70866;SDS011;58487;53.474;49.470;2023-03-01T04:35:09;6.78;;;2.22;;
70866;SDS011;58487;53.474;49.470;2023-03-01T04:37:35;7.00;;;2.53;;
70866;SDS011;58487;53.474;49.470;2023-03-01T04:40:02;8.27;;;3.47;;
70866;SDS011;58487;53.474;49.470;2023-03-01T04:42:42;7.75;;;2.72;;
70866;SDS011;58487;53.474;49.470;2023-03-01T04:45:08;7.17;;;2.87;;
70866;SDS011;58487;53.474;49.470;2023-03-01T04:47:44;7.88;;;3.00;;
70866;SDS011;58487;53.474;49.470;2023-03-01T04:50:12;7.65;;;2.55;;
70866;SDS011;58487;53.474;49.470;2023-03-01T04:52:42;10.77;;;4.00;;
70866;SDS011;58487;53.474;49.470;2023-03-01T04:55:09;7.60;;;3.13;;
70866;SDS011;58487;53.474;49.470;2023-03-01T04:57:36;7.57;;;2.80;;
70866;SDS011;58487;53.474;49.470;2023-03-01T05:00:03;9.63;;;3.20;;
70866;SDS011;58487;53.474;49.470;2023-03-01T05:02:52;9.05;;;3.45;;
70866;SDS011;58487;53.474;49.470;2023-03-01T05:05:24;8.55;;;3.50;;
70866;SDS011;58487;53.474;49.470;2023-03-01T05:07:51;6.18;;;2.25;;
70866;SDS011;58487;53.474;49.470;2023-03-01T05:10:22;4.50;;;1.77;;
70866;SDS011;58487;53.474;49.470;2023-03-01T05:12:49;6.90;;;2.90;;
70866;SDS011;58487;53.474;49.470;2023-03-01T05:15:17;5.75;;;2.22;;
70866;SDS011;58487;53.474;49.470;2023-03-01T05:17:44;7.90;;;3.63;;
70866;SDS011;58487;53.474;49.470;2023-03-01T05:20:10;6.45;;;2.42;;
70866;SDS011;58487;53.474;49.470;2023-03-01T05:22:36;6.93;;;2.13;;
70866;SDS011;58487;53.474;49.470;2023-03-01T05:25:03;7.78;;;3.00;;
70866;SDS011;58487;53.474;49.470;2023-03-01T05:27:30;7.25;;;2.92;;
70866;SDS011;58487;53.474;49.470;2023-03-01T05:29:56;9.63;;;3.85;;
70866;SDS011;58487;53.474;49.470;2023-03-01T05:32:22;6.22;;;2.33;;
70866;SDS011;58487;53.474;49.470;2023-03-01T05:34:48;8.93;;;3.53;;
70866;SDS011;58487;53.474;49.470;2023-03-01T05:37:14;8.85;;;3.33;;
70866;SDS011;58487;53.474;49.470;2023-03-01T05:39:40;9.00;;;3.53;;
70866;SDS011;58487;53.474;49.470;2023-03-01T05:42:09;7.25;;;2.70;;
70866;SDS011;58487;53.474;49.470;2023-03-01T05:44:36;8.57;;;3.58;;
70866;SDS011;58487;53.474;49.470;2023-03-01T05:47:02;10.60;;;3.90;;
70866;SDS011;58487;53.474;49.470;2023-03-01T05:49:28;8.95;;;3.50;;
70866;SDS011;58487;53.474;49.470;2023-03-01T05:51:55;7.10;;;2.28;;
70866;SDS011;58487;53.474;49.470;2023-03-01T05:54:21;9.10;;;3.42;;
70866;SDS011;58487;53.474;49.470;2023-03-01T05:56:48;9.88;;;4.07;;
70866;SDS011;58487;53.474;49.470;2023-03-01T05:59:14;9.33;;;3.87;;
70866;SDS011;58487;53.474;49.470;2023-03-01T06:01:41;7.03;;;3.13;;
70866;SDS011;58487;53.474;49.470;2023-03-01T06:04:07;9.35;;;3.53;;
70866;SDS011;58487;53.474;49.470;2023-03-01T06:06:34;9.07;;;3.78;;
70866;SDS011;58487;53.474;49.470;2023-03-01T06:09:03;8.35;;;3.70;;
70866;SDS011;58487;53.474;49.470;2023-03-01T06:11:35;9.77;;;3.60;;
70866;SDS011;58487;53.474;49.470;2023-03-01T06:14:02;7.05;;;2.55;;
70866;SDS011;58487;53.474;49.470;2023-03-01T06:16:30;8.32;;;3.58;;
70866;SDS011;58487;53.474;49.470;2023-03-01T06:18:56;8.18;;;2.72;;
70866;SDS011;58487;53.474;49.470;2023-03-01T06:21:22;8.73;;;3.30;;
70866;SDS011;58487;53.474;49.470;2023-03-01T06:23:48;7.93;;;3.53;;
70866;SDS011;58487;53.474;49.470;2023-03-01T06:26:15;8.77;;;3.40;;
70866;SDS011;58487;53.474;49.470;2023-03-01T06:28:41;7.80;;;3.17;;
70866;SDS011;58487;53.474;49.470;2023-03-01T06:31:07;9.57;;;3.88;;
70866;SDS011;58487;53.474;49.470;2023-03-01T06:33:34;8.55;;;2.50;;
70866;SDS011;58487;53.474;49.470;2023-03-01T06:36:01;7.40;;;2.33;;
70866;SDS011;58487;53.474;49.470;2023-03-01T06:38:28;7.05;;;3.17;;
70866;SDS011;58487;53.474;49.470;2023-03-01T06:40:54;3.63;;;1.42;;
70866;SDS011;58487;53.474;49.470;2023-03-01T06:43:22;5.07;;;1.70;;
70866;SDS011;58487;53.474;49.470;2023-03-01T06:45:49;7.38;;;2.58;;
70866;SDS011;58487;53.474;49.470;2023-03-01T06:48:16;6.10;;;2.30;;
70866;SDS011;58487;53.474;49.470;2023-03-01T06:50:42;4.13;;;1.73;;
70866;SDS011;58487;53.474;49.470;2023-03-01T06:53:09;6.72;;;2.65;;
70866;SDS011;58487;53.474;49.470;2023-03-01T06:55:35;7.35;;;3.03;;
70866;SDS011;58487;53.474;49.470;2023-03-01T06:58:02;4.80;;;1.80;;
70866;SDS011;58487;53.474;49.470;2023-03-01T07:00:29;5.40;;;2.10;;
70866;SDS011;58487;53.474;49.470;2023-03-01T07:02:57;4.78;;;1.63;;
70866;SDS011;58487;53.474;49.470;2023-03-01T07:05:24;2.55;;;0.90;;
70866;SDS011;58487;53.474;49.470;2023-03-01T07:07:51;3.17;;;1.17;;
70866;SDS011;58487;53.474;49.470;2023-03-01T07:10:19;3.60;;;1.30;;
70866;SDS011;58487;53.474;49.470;2023-03-01T07:12:45;5.60;;;1.80;;
70866;SDS011;58487;53.474;49.470;2023-03-01T07:15:11;5.13;;;1.60;;
70866;SDS011;58487;53.474;49.470;2023-03-01T07:17:38;2.92;;;1.10;;
70866;SDS011;58487;53.474;49.470;2023-03-01T07:20:04;7.78;;;2.15;;
70866;SDS011;58487;53.474;49.470;2023-03-01T07:22:30;5.20;;;1.73;;
70866;SDS011;58487;53.474;49.470;2023-03-01T07:24:57;5.77;;;1.80;;
70866;SDS011;58487;53.474;49.470;2023-03-01T07:27:23;4.65;;;1.80;;
70866;SDS011;58487;53.474;49.470;2023-03-01T07:29:49;4.88;;;1.77;;
70866;SDS011;58487;53.474;49.470;2023-03-01T07:32:15;5.55;;;1.70;;
70866;SDS011;58487;53.474;49.470;2023-03-01T07:34:41;4.00;;;1.48;;
70866;SDS011;58487;53.474;49.470;2023-03-01T07:37:07;5.50;;;1.30;;
70866;SDS011;58487;53.474;49.470;2023-03-01T07:39:33;8.00;;;1.52;;
70866;SDS011;58487;53.474;49.470;2023-03-01T07:41:59;4.15;;;1.70;;
70866;SDS011;58487;53.474;49.470;2023-03-01T07:44:25;3.92;;;1.48;;
70866;SDS011;58487;53.474;49.470;2023-03-01T07:46:52;5.85;;;1.90;;
70866;SDS011;58487;53.474;49.470;2023-03-01T07:49:21;3.20;;;1.00;;
70866;SDS011;58487;53.474;49.470;2023-03-01T07:51:47;4.45;;;1.70;;
70866;SDS011;58487;53.474;49.470;2023-03-01T07:54:13;5.55;;;1.60;;
70866;SDS011;58487;53.474;49.470;2023-03-01T07:56:39;5.63;;;1.98;;
70866;SDS011;58487;53.474;49.470;2023-03-01T07:59:06;3.05;;;1.10;;
70866;SDS011;58487;53.474;49.470;2023-03-01T08:01:32;4.27;;;1.70;;
70866;SDS011;58487;53.474;49.470;2023-03-01T08:03:58;6.10;;;1.60;;
70866;SDS011;58487;53.474;49.470;2023-03-01T08:06:24;6.78;;;1.98;;
70866;SDS011;58487;53.474;49.470;2023-03-01T08:08:50;5.15;;;1.60;;
70866;SDS011;58487;53.474;49.470;2023-03-01T08:11:16;4.00;;;1.60;;
70866;SDS011;58487;53.474;49.470;2023-03-01T08:13:43;5.33;;;1.70;;
70866;SDS011;58487;53.474;49.470;2023-03-01T08:16:13;4.75;;;1.80;;
70866;SDS011;58487;53.474;49.470;2023-03-01T08:18:40;3.95;;;1.50;;
70866;SDS011;58487;53.474;49.470;2023-03-01T08:21:11;4.70;;;1.50;;
70866;SDS011;58487;53.474;49.470;2023-03-01T08:23:41;4.15;;;1.65;;
70866;SDS011;58487;53.474;49.470;2023-03-01T08:26:09;4.50;;;1.70;;
70866;SDS011;58487;53.474;49.470;2023-03-01T08:28:37;4.10;;;1.60;;
70866;SDS011;58487;53.474;49.470;2023-03-01T08:31:14;7.20;;;1.70;;
70866;SDS011;58487;53.474;49.470;2023-03-01T08:33:46;3.17;;;1.15;;
70866;SDS011;58487;53.474;49.470;2023-03-01T08:36:21;5.35;;;1.45;;
70866;SDS011;58487;53.474;49.470;2023-03-01T08:38:54;4.13;;;1.50;;
70866;SDS011;58487;53.474;49.470;2023-03-01T08:41:21;4.13;;;1.42;;
70866;SDS011;58487;53.474;49.470;2023-03-01T08:43:47;3.97;;;1.35;;
70866;SDS011;58487;53.474;49.470;2023-03-01T08:46:14;4.40;;;1.52;;
70866;SDS011;58487;53.474;49.470;2023-03-01T08:48:40;4.32;;;1.08;;
70866;SDS011;58487;53.474;49.470;2023-03-01T08:51:10;4.27;;;1.33;;
70866;SDS011;58487;53.474;49.470;2023-03-01T08:53:38;3.90;;;1.50;;
70866;SDS011;58487;53.474;49.470;2023-03-01T08:56:05;3.97;;;1.30;;
70866;SDS011;58487;53.474;49.470;2023-03-01T08:58:32;3.25;;;1.23;;
70866;SDS011;58487;53.474;49.470;2023-03-01T09:00:59;3.83;;;1.50;;
70866;SDS011;58487;53.474;49.470;2023-03-01T09:03:26;4.33;;;1.40;;
70866;SDS011;58487;53.474;49.470;2023-03-01T09:05:53;4.57;;;1.10;;
70866;SDS011;58487;53.474;49.470;2023-03-01T09:08:25;4.82;;;2.00;;
70866;SDS011;58487;53.474;49.470;2023-03-01T09:10:51;4.35;;;1.50;;
70866;SDS011;58487;53.474;49.470;2023-03-01T09:13:17;2.90;;;1.10;;
70866;SDS011;58487;53.474;49.470;2023-03-01T09:15:44;3.63;;;1.43;;
70866;SDS011;58487;53.474;49.470;2023-03-01T09:18:10;4.82;;;1.48;;
70866;SDS011;58487;53.474;49.470;2023-03-01T09:20:36;3.50;;;1.33;;
70866;SDS011;58487;53.474;49.470;2023-03-01T09:23:02;3.58;;;1.40;;
70866;SDS011;58487;53.474;49.470;2023-03-01T09:25:28;4.25;;;1.40;;
70866;SDS011;58487;53.474;49.470;2023-03-01T09:27:54;3.13;;;1.17;;
70866;SDS011;58487;53.474;49.470;2023-03-01T09:30:21;3.85;;;1.17;;
70866;SDS011;58487;53.474;49.470;2023-03-01T09:32:47;5.40;;;1.60;;
70866;SDS011;58487;53.474;49.470;2023-03-01T09:35:13;2.70;;;1.00;;
70866;SDS011;58487;53.474;49.470;2023-03-01T09:37:39;2.97;;;1.20;;
70866;SDS011;58487;53.474;49.470;2023-03-01T09:40:14;5.30;;;1.40;;
70866;SDS011;58487;53.474;49.470;2023-03-01T09:45:45;3.47;;;1.23;;
70866;SDS011;58487;53.474;49.470;2023-03-01T09:48:17;3.10;;;1.27;;
70866;SDS011;58487;53.474;49.470;2023-03-01T09:50:49;4.45;;;1.58;;
70866;SDS011;58487;53.474;49.470;2023-03-01T09:53:18;3.10;;;1.10;;
70866;SDS011;58487;53.474;49.470;2023-03-01T09:56:00;3.63;;;1.20;;
70866;SDS011;58487;53.474;49.470;2023-03-01T10:04:23;3.58;;;1.20;;
70866;SDS011;58487;53.474;49.470;2023-03-01T10:07:05;3.67;;;1.10;;
70866;SDS011;58487;53.474;49.470;2023-03-01T10:09:36;4.05;;;0.90;;
70866;SDS011;58487;53.474;49.470;2023-03-01T10:12:11;3.47;;;1.20;;
70866;SDS011;58487;53.474;49.470;2023-03-01T10:19:51;4.47;;;1.30;;
70866;SDS011;58487;53.474;49.470;2023-03-01T10:22:35;8.15;;;1.58;;
70866;SDS011;58487;53.474;49.470;2023-03-01T10:25:02;3.60;;;1.30;;
70866;SDS011;58487;53.474;49.470;2023-03-01T10:27:31;3.33;;;1.13;;
70866;SDS011;58487;53.474;49.470;2023-03-01T10:32:46;2.70;;;1.00;;
70866;SDS011;58487;53.474;49.470;2023-03-01T10:35:19;6.57;;;1.90;;
70866;SDS011;58487;53.474;49.470;2023-03-01T10:38:06;3.67;;;1.20;;
70866;SDS011;58487;53.474;49.470;2023-03-01T10:40:36;4.95;;;1.45;;
70866;SDS011;58487;53.474;49.470;2023-03-01T10:43:17;2.95;;;1.10;;
70866;SDS011;58487;53.474;49.470;2023-03-01T10:45:43;3.80;;;1.27;;
70866;SDS011;58487;53.474;49.470;2023-03-01T10:53:42;3.20;;;1.10;;
70866;SDS011;58487;53.474;49.470;2023-03-01T10:56:14;4.03;;;1.10;;
70866;SDS011;58487;53.474;49.470;2023-03-01T10:58:56;2.40;;;0.80;;
70866;SDS011;58487;53.474;49.470;2023-03-01T11:01:34;2.58;;;0.80;;
70866;SDS011;58487;53.474;49.470;2023-03-01T11:06:36;3.72;;;0.90;;
70866;SDS011;58487;53.474;49.470;2023-03-01T11:09:13;2.10;;;0.70;;
70866;SDS011;58487;53.474;49.470;2023-03-01T11:11:41;2.97;;;1.00;;
70866;SDS011;58487;53.474;49.470;2023-03-01T11:14:27;6.35;;;1.30;;
70866;SDS011;58487;53.474;49.470;2023-03-01T11:17:16;2.38;;;0.90;;
70866;SDS011;58487;53.474;49.470;2023-03-01T11:22:45;6.70;;;1.27;;
70866;SDS011;58487;53.474;49.470;2023-03-01T11:25:15;5.30;;;1.50;;
70866;SDS011;58487;53.474;49.470;2023-03-01T11:27:43;3.83;;;1.10;;
70866;SDS011;58487;53.474;49.470;2023-03-01T11:35:49;4.30;;;1.40;;
70866;SDS011;58487;53.474;49.470;2023-03-01T11:38:23;5.27;;;1.50;;
70866;SDS011;58487;53.474;49.470;2023-03-01T11:40:54;3.33;;;0.93;;
70866;SDS011;58487;53.474;49.470;2023-03-01T11:43:44;4.10;;;1.20;;
70866;SDS011;58487;53.474;49.470;2023-03-01T11:52:04;5.10;;;1.50;;
70866;SDS011;58487;53.474;49.470;2023-03-01T11:55:19;3.50;;;0.93;;
70866;SDS011;58487;53.474;49.470;2023-03-01T11:57:43;3.85;;;1.30;;
70866;SDS011;58487;53.474;49.470;2023-03-01T12:03:40;4.93;;;1.33;;
70866;SDS011;58487;53.474;49.470;2023-03-01T12:14:31;3.47;;;1.23;;
70866;SDS011;58487;53.474;49.470;2023-03-01T12:23:24;3.95;;;1.10;;
70866;SDS011;58487;53.474;49.470;2023-03-01T12:25:31;2.97;;;1.00;;
70866;SDS011;58487;53.474;49.470;2023-03-01T12:28:11;2.45;;;0.80;;
70866;SDS011;58487;53.474;49.470;2023-03-01T12:48:31;3.97;;;1.13;;
70866;SDS011;58487;53.474;49.470;2023-03-01T12:51:18;5.13;;;1.17;;
70866;SDS011;58487;53.474;49.470;2023-03-01T12:53:49;3.42;;;0.98;;
70866;SDS011;58487;53.474;49.470;2023-03-01T12:56:21;2.90;;;1.00;;
70866;SDS011;58487;53.474;49.470;2023-03-01T13:07:02;4.15;;;1.30;;
70866;SDS011;58487;53.474;49.470;2023-03-01T13:18:03;3.60;;;1.40;;
70866;SDS011;58487;53.474;49.470;2023-03-01T13:20:53;4.68;;;1.50;;
70866;SDS011;58487;53.474;49.470;2023-03-01T13:23:31;3.55;;;1.23;;
70866;SDS011;58487;53.474;49.470;2023-03-01T13:38:58;4.00;;;1.02;;
70866;SDS011;58487;53.474;49.470;2023-03-01T13:44:19;3.63;;;1.00;;
70866;SDS011;58487;53.474;49.470;2023-03-01T13:46:46;2.50;;;0.80;;
70866;SDS011;58487;53.474;49.470;2023-03-01T13:49:18;2.65;;;0.80;;
70866;SDS011;58487;53.474;49.470;2023-03-01T13:51:47;4.43;;;1.20;;
70866;SDS011;58487;53.474;49.470;2023-03-01T13:54:16;4.27;;;1.07;;
70866;SDS011;58487;53.474;49.470;2023-03-01T13:56:51;5.45;;;1.30;;
70866;SDS011;58487;53.474;49.470;2023-03-01T13:59:18;3.78;;;1.00;;
70866;SDS011;58487;53.474;49.470;2023-03-01T14:01:56;3.72;;;1.05;;
70866;SDS011;58487;53.474;49.470;2023-03-01T14:04:28;3.88;;;1.13;;
70866;SDS011;58487;53.474;49.470;2023-03-01T14:09:44;2.13;;;0.73;;
70866;SDS011;58487;53.474;49.470;2023-03-01T14:12:19;4.75;;;1.20;;
70866;SDS011;58487;53.474;49.470;2023-03-01T14:15:00;4.15;;;1.10;;
70866;SDS011;58487;53.474;49.470;2023-03-01T14:20:02;3.87;;;0.73;;
70866;SDS011;58487;53.474;49.470;2023-03-01T14:22:40;3.75;;;0.95;;
70866;SDS011;58487;53.474;49.470;2023-03-01T14:30:30;3.15;;;1.10;;
70866;SDS011;58487;53.474;49.470;2023-03-01T14:33:01;8.40;;;3.03;;
70866;SDS011;58487;53.474;49.470;2023-03-01T14:35:33;5.18;;;1.52;;
70866;SDS011;58487;53.474;49.470;2023-03-01T14:38:01;4.43;;;1.20;;
70866;SDS011;58487;53.474;49.470;2023-03-01T14:40:29;4.13;;;1.00;;
70866;SDS011;58487;53.474;49.470;2023-03-01T14:42:59;3.55;;;0.82;;
70866;SDS011;58487;53.474;49.470;2023-03-01T14:45:28;4.83;;;1.27;;
70866;SDS011;58487;53.474;49.470;2023-03-01T14:47:58;3.63;;;1.05;;
70866;SDS011;58487;53.474;49.470;2023-03-01T14:50:29;4.70;;;1.17;;
70866;SDS011;58487;53.474;49.470;2023-03-01T14:53:02;3.38;;;1.10;;
70866;SDS011;58487;53.474;49.470;2023-03-01T14:55:31;5.03;;;1.30;;
70866;SDS011;58487;53.474;49.470;2023-03-01T14:58:03;2.97;;;0.90;;
70866;SDS011;58487;53.474;49.470;2023-03-01T15:00:31;3.90;;;1.00;;
70866;SDS011;58487;53.474;49.470;2023-03-01T15:03:00;3.88;;;1.02;;
70866;SDS011;58487;53.474;49.470;2023-03-01T15:05:38;3.22;;;1.00;;
70866;SDS011;58487;53.474;49.470;2023-03-01T15:08:26;3.15;;;0.88;;
70866;SDS011;58487;53.474;49.470;2023-03-01T15:11:03;3.77;;;1.20;;
70866;SDS011;58487;53.474;49.470;2023-03-01T15:13:31;2.67;;;0.73;;
70866;SDS011;58487;53.474;49.470;2023-03-01T15:16:03;3.80;;;1.00;;
70866;SDS011;58487;53.474;49.470;2023-03-01T15:18:33;3.15;;;0.88;;
70866;SDS011;58487;53.474;49.470;2023-03-01T15:21:05;2.75;;;0.77;;
70866;SDS011;58487;53.474;49.470;2023-03-01T15:23:40;3.53;;;0.77;;
70866;SDS011;58487;53.474;49.470;2023-03-01T15:26:17;3.30;;;1.00;;
70866;SDS011;58487;53.474;49.470;2023-03-01T15:28:50;3.97;;;0.90;;
70866;SDS011;58487;53.474;49.470;2023-03-01T15:31:23;3.53;;;0.88;;
70866;SDS011;58487;53.474;49.470;2023-03-01T15:34:07;4.35;;;1.00;;
70866;SDS011;58487;53.474;49.470;2023-03-01T15:36:46;7.27;;;1.10;;
70866;SDS011;58487;53.474;49.470;2023-03-01T15:42:13;3.00;;;0.90;;
70866;SDS011;58487;53.474;49.470;2023-03-01T15:45:20;3.65;;;1.00;;
70866;SDS011;58487;53.474;49.470;2023-03-01T15:47:55;5.68;;;1.42;;
70866;SDS011;58487;53.474;49.470;2023-03-01T15:50:28;2.43;;;0.80;;
70866;SDS011;58487;53.474;49.470;2023-03-01T15:52:58;2.13;;;0.70;;
70866;SDS011;58487;53.474;49.470;2023-03-01T15:55:30;3.47;;;1.30;;
70866;SDS011;58487;53.474;49.470;2023-03-01T16:00:43;3.60;;;0.90;;
70866;SDS011;58487;53.474;49.470;2023-03-01T16:03:11;4.37;;;1.33;;
70866;SDS011;58487;53.474;49.470;2023-03-01T16:05:38;3.83;;;1.00;;
70866;SDS011;58487;53.474;49.470;2023-03-01T16:08:05;5.57;;;1.10;;
70866;SDS011;58487;53.474;49.470;2023-03-01T16:10:32;3.65;;;1.10;;
70866;SDS011;58487;53.474;49.470;2023-03-01T16:12:59;2.92;;;0.82;;
70866;SDS011;58487;53.474;49.470;2023-03-01T16:15:30;4.30;;;0.90;;
70866;SDS011;58487;53.474;49.470;2023-03-01T16:17:59;4.75;;;1.27;;
70866;SDS011;58487;53.474;49.470;2023-03-01T16:20:26;4.70;;;1.17;;
70866;SDS011;58487;53.474;49.470;2023-03-01T16:22:53;3.45;;;1.10;;
70866;SDS011;58487;53.474;49.470;2023-03-01T16:25:22;3.85;;;1.00;;
70866;SDS011;58487;53.474;49.470;2023-03-01T16:27:49;3.23;;;1.10;;
70866;SDS011;58487;53.474;49.470;2023-03-01T16:30:19;4.90;;;1.17;;
70866;SDS011;58487;53.474;49.470;2023-03-01T16:32:47;5.30;;;1.05;;
70866;SDS011;58487;53.474;49.470;2023-03-01T16:35:16;5.43;;;1.10;;
70866;SDS011;58487;53.474;49.470;2023-03-01T16:37:44;4.78;;;1.20;;
70866;SDS011;58487;53.474;49.470;2023-03-01T16:40:46;6.00;;;1.10;;
70866;SDS011;58487;53.474;49.470;2023-03-01T16:43:07;4.43;;;1.00;;
70866;SDS011;58487;53.474;49.470;2023-03-01T16:45:35;3.45;;;1.10;;
70866;SDS011;58487;53.474;49.470;2023-03-01T16:48:02;3.40;;;1.10;;
70866;SDS011;58487;53.474;49.470;2023-03-01T16:50:31;4.35;;;1.20;;
70866;SDS011;58487;53.474;49.470;2023-03-01T16:52:59;3.33;;;1.00;;
70866;SDS011;58487;53.474;49.470;2023-03-01T16:55:28;3.30;;;1.08;;
70866;SDS011;58487;53.474;49.470;2023-03-01T16:58:01;4.25;;;1.05;;
70866;SDS011;58487;53.474;49.470;2023-03-01T17:00:32;4.55;;;1.00;;
70866;SDS011;58487;53.474;49.470;2023-03-01T17:02:59;5.70;;;1.20;;
70866;SDS011;58487;53.474;49.470;2023-03-01T17:05:29;6.63;;;1.30;;
70866;SDS011;58487;53.474;49.470;2023-03-01T17:07:55;8.73;;;1.30;;